Time;durP1;ratioP1;P1;durP2;ratioP2;P2;SDS_P1;SDS_P2;PMS_P1;PMS_P2;Temp;Humidity;BMP_temperature;BMP_pressure;BME280_temperature;BME280_humidity;BME280_pressure;Samples;Min_cycle;Max_cycle;Signal;HPM_P1;HPM_P2
2024/03/17 00:02:04;;;;;;;;;7.33;7.33;;;;;;;;4998771;28;45376;-75
2024/03/17 00:04:30;;;;;;;;;8.67;8.00;;;;;;;;4999025;28;45365;-76
2024/03/17 00:06:55;;;;;;;;;8.00;8.00;;;;;;;;5000687;28;45217;-75
2024/03/17 00:09:20;;;;;;;;;8.33;8.33;;;;;;;;5002267;28;46130;-75
2024/03/17 00:11:45;;;;;;;;;13.00;11.67;;;;;;;;5002319;28;45384;-76
2024/03/17 00:14:11;;;;;;;;;8.50;8.50;;;;;;;;5002449;28;45260;-76
2024/03/17 00:16:36;;;;;;;;;9.33;9.00;;;;;;;;5002002;28;45381;-74
2024/03/17 00:19:01;;;;;;;;;9.00;8.33;;;;;;;;5001919;28;46126;-76
2024/03/17 00:21:26;;;;;;;;;7.00;7.00;;;;;;;;5002250;28;45507;-75
2024/03/17 00:23:52;;;;;;;;;9.00;7.33;;;;;;;;5002360;28;45274;-77
2024/03/17 00:26:19;;;;;;;;;8.67;7.67;;;;;;;;5001956;28;45304;-76
2024/03/17 00:28:46;;;;;;;;;6.00;6.00;;;;;;;;5002064;28;46396;-75
2024/03/17 00:31:11;;;;;;;;;7.00;7.00;;;;;;;;5001772;28;45324;-76
2024/03/17 00:33:37;;;;;;;;;6.00;6.00;;;;;;;;5001969;28;45630;-76
2024/03/17 00:36:02;;;;;;;;;7.33;6.00;;;;;;;;5002129;28;45460;-76
2024/03/17 00:38:27;;;;;;;;;6.67;6.67;;;;;;;;5001822;28;46159;-76
2024/03/17 00:40:53;;;;;;;;;7.00;7.00;;;;;;;;5002117;28;45265;-76
2024/03/17 00:43:18;;;;;;;;;2.67;2.67;;;;;;;;5002023;28;45451;-76
2024/03/17 00:45:43;;;;;;;;;7.00;7.00;;;;;;;;5001478;28;45413;-76
2024/03/17 00:48:09;;;;;;;;;5.00;5.00;;;;;;;;5001664;28;46584;-75
2024/03/17 00:50:34;;;;;;;;;7.33;5.67;;;;;;;;4983489;28;45599;-75
2024/03/17 00:53:00;;;;;;;;;6.00;5.00;;;;;;;;5001360;28;45333;-76
2024/03/17 00:55:25;;;;;;;;;6.00;6.00;;;;;;;;4983712;28;46084;-76
2024/03/17 00:57:50;;;;;;;;;6.00;5.00;;;;;;;;4995345;28;48628;-76
2024/03/17 01:00:16;;;;;;;;;6.00;6.00;;;;;;;;5021582;28;45375;-76
2024/03/17 01:02:41;;;;;;;;;7.00;7.00;;;;;;;;5021470;28;45313;-76
2024/03/17 01:05:07;;;;;;;;;6.00;6.00;;;;;;;;5021164;28;45287;-77
2024/03/17 01:07:32;;;;;;;;;5.00;5.00;;;;;;;;5021367;28;45768;-75
2024/03/17 01:09:57;;;;;;;;;5.00;5.00;;;;;;;;5003189;28;46010;-76
2024/03/17 01:12:23;;;;;;;;;6.00;6.00;;;;;;;;5003262;28;45289;-76
2024/03/17 01:14:48;;;;;;;;;4.00;3.33;;;;;;;;5021488;28;45334;-75
2024/03/17 01:17:13;;;;;;;;;1.33;0.00;;;;;;;;5002738;28;48404;-76
2024/03/17 01:19:38;;;;;;;;;5.67;5.67;;;;;;;;5021099;28;45372;-76
2024/03/17 01:22:03;;;;;;;;;5.00;5.00;;;;;;;;5021076;28;45230;-77
2024/03/17 01:24:31;;;;;;;;;5.33;5.33;;;;;;;;5021231;28;45534;-75
2024/03/17 01:26:57;;;;;;;;;7.67;7.00;;;;;;;;5020921;28;45330;-76
2024/03/17 01:29:22;;;;;;;;;6.00;5.33;;;;;;;;5020848;28;45305;-76
2024/03/17 01:31:47;;;;;;;;;4.67;4.67;;;;;;;;5003243;28;45348;-75
2024/03/17 01:34:12;;;;;;;;;6.67;6.00;;;;;;;;5002933;28;47218;-76
2024/03/17 01:36:38;;;;;;;;;6.67;6.00;;;;;;;;5002925;28;46861;-75
2024/03/17 01:39:03;;;;;;;;;4.67;4.33;;;;;;;;5020573;28;45324;-76
2024/03/17 01:41:28;;;;;;;;;6.00;6.00;;;;;;;;5002899;28;45684;-76
2024/03/17 01:43:53;;;;;;;;;7.00;5.00;;;;;;;;5019686;28;45372;-76
2024/03/17 01:46:18;;;;;;;;;5.67;5.67;;;;;;;;5020277;28;45581;-76
2024/03/17 01:48:44;;;;;;;;;5.00;5.00;;;;;;;;5012780;28;45326;-76
2024/03/17 01:51:10;;;;;;;;;5.67;5.67;;;;;;;;5000896;28;45442;-77
2024/03/17 01:53:36;;;;;;;;;4.67;4.00;;;;;;;;4983120;28;46234;-77
2024/03/17 01:56:02;;;;;;;;;5.33;5.33;;;;;;;;4982846;28;48033;-76
2024/03/17 01:58:29;;;;;;;;;7.67;6.00;;;;;;;;5000463;28;45318;-76
2024/03/17 02:00:55;;;;;;;;;5.00;5.00;;;;;;;;4983015;28;45255;-76
2024/03/17 02:03:20;;;;;;;;;6.00;6.00;;;;;;;;4982420;28;46191;-76
2024/03/17 02:05:45;;;;;;;;;5.00;4.33;;;;;;;;5000600;28;46210;-75
2024/03/17 02:08:10;;;;;;;;;6.00;6.00;;;;;;;;4999692;28;45194;-75
2024/03/17 02:10:36;;;;;;;;;4.33;3.67;;;;;;;;4999782;28;45253;-75
2024/03/17 02:13:05;;;;;;;;;6.00;4.33;;;;;;;;5000246;28;45666;-75
2024/03/17 02:15:30;;;;;;;;;3.33;3.33;;;;;;;;4982431;28;47375;-76
2024/03/17 02:17:56;;;;;;;;;3.33;3.33;;;;;;;;4982668;28;45377;-76
2024/03/17 02:20:54;;;;;;;;;4.00;4.00;;;;;;;;5000467;28;45293;-76
2024/03/17 02:23:06;;;;;;;;;6.00;6.00;;;;;;;;4982350;28;46425;-75
2024/03/17 02:25:32;;;;;;;;;5.00;5.00;;;;;;;;5000117;28;46274;-76
2024/03/17 02:27:57;;;;;;;;;4.67;4.67;;;;;;;;5000249;28;45308;-76
2024/03/17 02:30:22;;;;;;;;;7.00;6.00;;;;;;;;4981818;28;45581;-75
2024/03/17 02:32:51;;;;;;;;;3.33;3.33;;;;;;;;4999854;28;45283;-75
2024/03/17 02:35:16;;;;;;;;;5.67;3.33;;;;;;;;4982398;28;47526;-76
2024/03/17 02:37:42;;;;;;;;;4.33;4.33;;;;;;;;4982523;28;45321;-75
2024/03/17 02:40:10;;;;;;;;;4.67;4.67;;;;;;;;5000319;28;45467;-76
2024/03/17 02:42:35;;;;;;;;;5.67;5.00;;;;;;;;5000152;28;45321;-76
2024/03/17 02:45:00;;;;;;;;;4.33;4.33;;;;;;;;4981905;28;47413;-76
2024/03/17 02:47:26;;;;;;;;;5.00;5.00;;;;;;;;4999819;28;45289;-76
2024/03/17 02:49:52;;;;;;;;;6.00;5.33;;;;;;;;4982021;28;45357;-76
2024/03/17 02:52:17;;;;;;;;;6.00;5.00;;;;;;;;4999811;28;45401;-75
2024/03/17 02:54:42;;;;;;;;;7.00;5.00;;;;;;;;4982137;28;46919;-75
2024/03/17 02:57:07;;;;;;;;;5.00;5.00;;;;;;;;5005499;28;45277;-75
2024/03/17 02:59:33;;;;;;;;;6.00;4.67;;;;;;;;5020063;28;45405;-75
2024/03/17 03:01:59;;;;;;;;;5.67;5.67;;;;;;;;5019486;28;45397;-75
2024/03/17 03:04:24;;;;;;;;;8.00;6.00;;;;;;;;5019551;28;45198;-75
2024/03/17 03:06:50;;;;;;;;;8.00;8.00;;;;;;;;5019215;28;45218;-76
2024/03/17 03:09:20;;;;;;;;;5.67;5.00;;;;;;;;5019659;28;45447;-76
2024/03/17 03:11:46;;;;;;;;;6.67;6.67;;;;;;;;5019362;28;45341;-76
2024/03/17 03:14:11;;;;;;;;;5.67;5.67;;;;;;;;5019274;28;45358;-75
2024/03/17 03:16:37;;;;;;;;;6.67;6.67;;;;;;;;5019018;28;45425;-75
2024/03/17 03:19:02;;;;;;;;;5.00;5.00;;;;;;;;5019515;28;45322;-76
2024/03/17 03:21:27;;;;;;;;;6.33;6.00;;;;;;;;5018243;28;45604;-76
2024/03/17 03:23:52;;;;;;;;;5.33;5.00;;;;;;;;5001371;28;47202;-75
2024/03/17 03:26:18;;;;;;;;;5.00;5.00;;;;;;;;5018215;28;45281;-76
2024/03/17 03:28:43;;;;;;;;;6.33;6.33;;;;;;;;4999675;28;45317;-75
2024/03/17 03:31:13;;;;;;;;;5.33;5.00;;;;;;;;4998897;28;45452;-76
2024/03/17 03:33:38;;;;;;;;;6.00;4.00;;;;;;;;4981686;28;47258;-77
2024/03/17 03:36:07;;;;;;;;;5.00;5.00;;;;;;;;4981667;28;45458;-75
2024/03/17 03:38:33;;;;;;;;;3.33;3.33;;;;;;;;4999536;28;45313;-75
2024/03/17 03:40:58;;;;;;;;;5.00;4.00;;;;;;;;4983386;28;46122;-75
2024/03/17 03:43:23;;;;;;;;;7.67;6.00;;;;;;;;5002361;28;45245;-75
2024/03/17 03:45:49;;;;;;;;;4.67;4.67;;;;;;;;5002497;28;45246;-76
2024/03/17 03:48:14;;;;;;;;;5.67;5.67;;;;;;;;4985259;28;45222;-75
2024/03/17 03:50:39;;;;;;;;;4.00;4.00;;;;;;;;5002553;28;45356;-75
2024/03/17 03:53:05;;;;;;;;;5.67;5.67;;;;;;;;5002187;28;47186;-75
2024/03/17 03:55:31;;;;;;;;;5.00;4.00;;;;;;;;4984780;28;45422;-76
2024/03/17 03:57:56;;;;;;;;;8.00;8.00;;;;;;;;4995981;28;45559;-76
2024/03/17 04:00:21;;;;;;;;;5.00;4.33;;;;;;;;5022000;28;46038;-76
2024/03/17 04:02:47;;;;;;;;;6.00;5.67;;;;;;;;5022275;28;45754;-75
2024/03/17 04:05:13;;;;;;;;;4.33;4.33;;;;;;;;5022244;28;45405;-76
2024/03/17 04:07:39;;;;;;;;;4.67;4.67;;;;;;;;5022435;28;45307;-76
2024/03/17 04:10:04;;;;;;;;;4.00;4.00;;;;;;;;5021828;28;45367;-76
2024/03/17 04:12:30;;;;;;;;;7.00;7.00;;;;;;;;5003136;28;47312;-76
2024/03/17 04:14:56;;;;;;;;;7.33;6.33;;;;;;;;5020506;28;45419;-77
2024/03/17 04:17:22;;;;;;;;;5.00;5.00;;;;;;;;5020752;28;45326;-76
2024/03/17 04:19:48;;;;;;;;;8.00;5.00;;;;;;;;5021927;28;45490;-76
2024/03/17 04:22:13;;;;;;;;;4.67;4.00;;;;;;;;5021965;28;45181;-75
2024/03/17 04:24:38;;;;;;;;;5.67;4.00;;;;;;;;5021943;28;45152;-76
2024/03/17 04:27:04;;;;;;;;;5.00;5.00;;;;;;;;5004103;28;45474;-75
2024/03/17 04:29:29;;;;;;;;;4.00;4.00;;;;;;;;5004157;28;46210;-76
2024/03/17 04:31:54;;;;;;;;;5.33;5.33;;;;;;;;5021702;28;45436;-75
2024/03/17 04:34:20;;;;;;;;;5.33;5.33;;;;;;;;5004068;28;45677;-76
2024/03/17 04:36:46;;;;;;;;;5.67;5.67;;;;;;;;5004165;28;45301;-75
2024/03/17 04:39:11;;;;;;;;;5.00;5.00;;;;;;;;5021696;28;45320;-76
2024/03/17 04:41:38;;;;;;;;;6.33;5.67;;;;;;;;5003714;28;47246;-76
2024/03/17 04:44:06;;;;;;;;;8.00;5.00;;;;;;;;5021601;28;45321;-75
2024/03/17 04:46:31;;;;;;;;;7.33;6.00;;;;;;;;5003444;28;45317;-76
2024/03/17 04:48:56;;;;;;;;;6.33;6.33;;;;;;;;5021496;28;45309;-76
2024/03/17 04:51:22;;;;;;;;;6.00;6.00;;;;;;;;5021125;28;45471;-76
2024/03/17 04:53:47;;;;;;;;;5.00;5.00;;;;;;;;5021160;28;45321;-75
2024/03/17 04:56:12;;;;;;;;;6.33;6.00;;;;;;;;5014918;28;45251;-76
2024/03/17 04:58:37;;;;;;;;;5.33;5.33;;;;;;;;5001705;28;45944;-76
2024/03/17 05:01:03;;;;;;;;;6.00;5.00;;;;;;;;5021087;28;46694;-77
2024/03/17 05:03:28;;;;;;;;;6.67;5.67;;;;;;;;5002482;28;45968;-76
2024/03/17 05:06:02;;;;;;;;;2.00;2.00;;;;;;;;5021555;28;45204;-76
2024/03/17 05:08:28;;;;;;;;;6.00;6.00;;;;;;;;5003420;28;46152;-76
2024/03/17 05:10:57;;;;;;;;;7.00;6.00;;;;;;;;5020906;28;45404;-76
2024/03/17 05:13:22;;;;;;;;;8.33;8.33;;;;;;;;5003218;28;45903;-76
2024/03/17 05:15:47;;;;;;;;;6.67;6.67;;;;;;;;5021126;28;45247;-76
2024/03/17 05:18:13;;;;;;;;;7.00;7.00;;;;;;;;5021265;28;45631;-76
2024/03/17 05:20:38;;;;;;;;;7.00;5.67;;;;;;;;5021011;28;45309;-77
2024/03/17 05:23:04;;;;;;;;;6.33;6.00;;;;;;;;5003270;28;46006;-76
2024/03/17 05:25:29;;;;;;;;;4.67;4.67;;;;;;;;5021324;28;45328;-76
2024/03/17 05:27:54;;;;;;;;;5.67;5.67;;;;;;;;5021082;28;45293;-76
2024/03/17 05:30:20;;;;;;;;;6.00;6.00;;;;;;;;5020843;28;45313;-76
2024/03/17 05:32:45;;;;;;;;;8.00;7.00;;;;;;;;5020960;28;45297;-76
2024/03/17 05:35:11;;;;;;;;;6.00;6.00;;;;;;;;5003116;28;45451;-76
2024/03/17 05:37:36;;;;;;;;;9.67;8.33;;;;;;;;5020925;28;45489;-76
2024/03/17 05:40:01;;;;;;;;;10.67;10.00;;;;;;;;5020801;28;45364;-76
2024/03/17 05:42:27;;;;;;;;;6.00;5.33;;;;;;;;5002985;28;45916;-76
2024/03/17 05:44:53;;;;;;;;;7.33;6.00;;;;;;;;5002980;28;45401;-77
2024/03/17 05:47:18;;;;;;;;;7.00;6.00;;;;;;;;5020359;28;45507;-77
2024/03/17 05:49:43;;;;;;;;;7.67;7.00;;;;;;;;5002534;28;47474;-78
2024/03/17 05:52:09;;;;;;;;;8.00;8.00;;;;;;;;5002668;28;45272;-78
2024/03/17 05:54:34;;;;;;;;;9.33;8.67;;;;;;;;5003040;28;45506;-78
2024/03/17 05:56:59;;;;;;;;;6.33;6.33;;;;;;;;5015887;28;45329;-78
2024/03/17 05:59:24;;;;;;;;;8.67;7.33;;;;;;;;5000486;28;46672;-77
2024/03/17 06:01:49;;;;;;;;;7.67;7.67;;;;;;;;4982865;28;45224;-77
2024/03/17 06:04:15;;;;;;;;;7.67;6.33;;;;;;;;5000765;28;45658;-77
2024/03/17 06:06:40;;;;;;;;;7.00;6.00;;;;;;;;5000590;28;45281;-77
2024/03/17 06:09:08;;;;;;;;;7.00;7.00;;;;;;;;5000512;28;46501;-77
2024/03/17 06:11:34;;;;;;;;;8.33;8.33;;;;;;;;5000407;28;45290;-77
2024/03/17 06:14:02;;;;;;;;;7.00;7.00;;;;;;;;4999783;28;45252;-77
2024/03/17 06:16:27;;;;;;;;;7.00;7.00;;;;;;;;4999467;28;45615;-78
2024/03/17 06:18:52;;;;;;;;;7.33;6.00;;;;;;;;4999947;28;45569;-77
2024/03/17 06:21:17;;;;;;;;;8.00;7.33;;;;;;;;4999054;28;45535;-78
2024/03/17 06:23:42;;;;;;;;;9.33;9.00;;;;;;;;4982126;28;45355;-77
2024/03/17 06:26:12;;;;;;;;;10.00;8.00;;;;;;;;4999459;28;45318;-77
2024/03/17 06:28:37;;;;;;;;;10.00;10.00;;;;;;;;4984868;28;47592;-78
2024/03/17 06:31:06;;;;;;;;;9.67;8.00;;;;;;;;4982294;28;45348;-76
2024/03/17 06:33:32;;;;;;;;;9.33;9.33;;;;;;;;5000345;28;45378;-76
2024/03/17 06:35:57;;;;;;;;;8.33;8.33;;;;;;;;5002511;28;45313;-76
2024/03/17 06:38:23;;;;;;;;;7.00;7.00;;;;;;;;4988922;28;47952;-77
2024/03/17 06:40:49;;;;;;;;;5.00;5.00;;;;;;;;5003793;28;45377;-77
2024/03/17 06:43:14;;;;;;;;;9.00;7.33;;;;;;;;5005174;28;45218;-77
2024/03/17 06:45:39;;;;;;;;;6.00;6.00;;;;;;;;5001111;28;45314;-77
2024/03/17 06:48:04;;;;;;;;;8.67;8.00;;;;;;;;4999638;28;45960;-77
2024/03/17 06:50:30;;;;;;;;;7.33;7.33;;;;;;;;4981805;28;45416;-76
2024/03/17 06:52:56;;;;;;;;;6.33;6.33;;;;;;;;5000295;28;45349;-78
2024/03/17 06:55:21;;;;;;;;;8.00;8.00;;;;;;;;5005351;28;45353;-79
2024/03/17 06:57:46;;;;;;;;;10.00;8.67;;;;;;;;5000709;28;46895;-78
2024/03/17 07:00:14;;;;;;;;;7.33;7.33;;;;;;;;4992931;28;45443;-77
2024/03/17 07:02:40;;;;;;;;;7.67;7.33;;;;;;;;5002791;28;45407;-79
2024/03/17 07:05:06;;;;;;;;;9.00;9.00;;;;;;;;5003490;28;45341;-78
2024/03/17 07:07:31;;;;;;;;;8.00;7.00;;;;;;;;5006222;28;45402;-78
2024/03/17 07:09:57;;;;;;;;;5.67;5.67;;;;;;;;5002132;28;45395;-78
2024/03/17 07:12:22;;;;;;;;;8.00;8.00;;;;;;;;5004225;28;45309;-78
2024/03/17 07:14:49;;;;;;;;;5.33;5.00;;;;;;;;4995233;28;46105;-78
2024/03/17 07:17:15;;;;;;;;;8.00;8.00;;;;;;;;5025681;28;45394;-78
2024/03/17 07:19:40;;;;;;;;;9.33;7.00;;;;;;;;5013320;28;45288;-78
2024/03/17 07:22:05;;;;;;;;;8.00;8.00;;;;;;;;5019939;28;45265;-77
2024/03/17 07:24:30;;;;;;;;;7.33;6.67;;;;;;;;5020149;28;45302;-78
2024/03/17 07:26:55;;;;;;;;;8.00;8.00;;;;;;;;5024328;28;45182;-78
2024/03/17 07:29:21;;;;;;;;;8.33;8.33;;;;;;;;5008621;28;45383;-77
2024/03/17 07:31:46;;;;;;;;;8.00;8.00;;;;;;;;5027271;28;45268;-77
2024/03/17 07:34:11;;;;;;;;;11.00;9.00;;;;;;;;5009954;28;45863;-77
2024/03/17 07:36:36;;;;;;;;;10.00;9.00;;;;;;;;5026810;28;45993;-77
2024/03/17 07:39:02;;;;;;;;;14.33;14.33;;;;;;;;5026683;28;44595;-76
2024/03/17 07:41:27;;;;;;;;;11.33;10.33;;;;;;;;5004483;28;45295;-77
2024/03/17 07:43:52;;;;;;;;;7.00;7.00;;;;;;;;5024712;28;45251;-76
2024/03/17 07:46:17;;;;;;;;;8.33;8.00;;;;;;;;5024093;28;45305;-76
2024/03/17 07:48:44;;;;;;;;;11.00;9.67;;;;;;;;5018555;28;45322;-77
2024/03/17 07:51:13;;;;;;;;;9.00;9.00;;;;;;;;4987487;28;45441;-79
2024/03/17 07:53:39;;;;;;;;;8.33;8.33;;;;;;;;5002132;28;45483;-79
2024/03/17 07:56:06;;;;;;;;;7.00;7.00;;;;;;;;4987364;28;47368;-80
2024/03/17 07:58:34;;;;;;;;;7.00;6.00;;;;;;;;5021684;28;45281;-79
2024/03/17 08:01:02;;;;;;;;;8.00;6.67;;;;;;;;5007386;28;45301;-79
2024/03/17 08:03:28;;;;;;;;;8.33;8.00;;;;;;;;5007388;28;46362;-79
2024/03/17 08:05:53;;;;;;;;;7.00;6.00;;;;;;;;5025208;28;46026;-79
2024/03/17 08:08:19;;;;;;;;;5.00;5.00;;;;;;;;5007982;28;45405;-80
2024/03/17 08:10:44;;;;;;;;;8.33;8.00;;;;;;;;5027360;28;45280;-79
2024/03/17 08:13:09;;;;;;;;;7.33;7.33;;;;;;;;4997630;28;46179;-81
2024/03/17 08:15:35;;;;;;;;;8.00;8.00;;;;;;;;5005914;28;46150;-80
2024/03/17 08:18:00;;;;;;;;;8.33;8.33;;;;;;;;5005545;28;45337;-80
2024/03/17 08:20:25;;;;;;;;;5.33;5.33;;;;;;;;4978553;28;45261;-81
2024/03/17 08:22:50;;;;;;;;;8.00;7.00;;;;;;;;4987873;28;46105;-80
2024/03/17 08:25:15;;;;;;;;;7.33;6.33;;;;;;;;5005209;28;46277;-80
2024/03/17 08:27:41;;;;;;;;;6.33;5.67;;;;;;;;5001579;28;45490;-80
2024/03/17 08:30:09;;;;;;;;;5.00;5.00;;;;;;;;5002478;28;45254;-80
2024/03/17 08:32:35;;;;;;;;;5.67;5.67;;;;;;;;4984417;28;46796;-80
2024/03/17 08:35:00;;;;;;;;;8.00;5.67;;;;;;;;4985086;28;47577;-80
2024/03/17 08:37:25;;;;;;;;;6.33;6.33;;;;;;;;5002335;28;45296;-79
2024/03/17 08:39:50;;;;;;;;;6.67;6.33;;;;;;;;5001800;28;45507;-79
2024/03/17 08:42:17;;;;;;;;;6.00;6.00;;;;;;;;4988291;28;45285;-80
2024/03/17 08:44:45;;;;;;;;;6.67;6.00;;;;;;;;4996311;28;45969;-78
2024/03/17 08:47:10;;;;;;;;;5.33;4.67;;;;;;;;5000121;28;45520;-81
2024/03/17 08:49:35;;;;;;;;;7.00;7.00;;;;;;;;4965888;28;45381;-81
2024/03/17 08:52:00;;;;;;;;;6.00;4.67;;;;;;;;4977191;28;47397;-81
2024/03/17 08:54:26;;;;;;;;;5.00;5.00;;;;;;;;4975866;28;47107;-81
2024/03/17 08:56:51;;;;;;;;;5.00;3.67;;;;;;;;4991420;28;45741;-80
2024/03/17 08:59:16;;;;;;;;;3.67;3.00;;;;;;;;4971709;28;45769;-80
2024/03/17 09:01:41;;;;;;;;;7.33;7.00;;;;;;;;4990807;28;45683;-79
2024/03/17 09:04:07;;;;;;;;;5.00;5.00;;;;;;;;4974974;28;47961;-80
2024/03/17 09:06:32;;;;;;;;;4.67;4.33;;;;;;;;4975195;28;46240;-80
2024/03/17 09:08:58;;;;;;;;;5.00;5.00;;;;;;;;4995232;28;45395;-83
2024/03/17 09:11:25;;;;;;;;;3.00;3.00;;;;;;;;4988585;28;45817;-81
2024/03/17 09:13:50;;;;;;;;;5.00;5.00;;;;;;;;4980037;28;46169;-81
2024/03/17 09:16:18;;;;;;;;;5.33;5.33;;;;;;;;4992488;28;45463;-82
2024/03/17 09:18:43;;;;;;;;;3.00;3.00;;;;;;;;4992934;28;46259;-81
2024/03/17 09:21:10;;;;;;;;;5.33;4.33;;;;;;;;4970234;28;45962;-81
2024/03/17 09:23:35;;;;;;;;;5.00;4.00;;;;;;;;4994107;28;45766;-80
2024/03/17 09:26:08;;;;;;;;;5.33;5.33;;;;;;;;4994112;28;45424;-80
2024/03/17 09:28:34;;;;;;;;;3.00;3.00;;;;;;;;4987715;28;46285;-79
2024/03/17 09:30:59;;;;;;;;;4.67;4.67;;;;;;;;4986317;28;46370;-80
2024/03/17 09:33:25;;;;;;;;;4.67;4.67;;;;;;;;4986051;28;46586;-80
2024/03/17 09:35:58;;;;;;;;;4.00;4.00;;;;;;;;4964026;28;46287;-79
2024/03/17 09:38:23;;;;;;;;;6.00;4.00;;;;;;;;4988200;28;45827;-79
2024/03/17 09:40:57;;;;;;;;;5.00;5.00;;;;;;;;4975745;28;46180;-79
2024/03/17 09:43:23;;;;;;;;;6.33;4.67;;;;;;;;4986564;28;46077;-80
2024/03/17 09:45:49;;;;;;;;;5.00;5.00;;;;;;;;4984634;28;46392;-81
2024/03/17 09:48:16;;;;;;;;;5.33;5.33;;;;;;;;4987752;28;45487;-79
2024/03/17 09:50:41;;;;;;;;;4.33;4.33;;;;;;;;4972278;28;46186;-80
2024/03/17 09:53:06;;;;;;;;;6.00;4.00;;;;;;;;4986962;28;46360;-79
2024/03/17 09:55:32;;;;;;;;;7.33;5.33;;;;;;;;4973703;28;45437;-79
2024/03/17 09:57:57;;;;;;;;;5.00;5.00;;;;;;;;4992309;28;45484;-79
2024/03/17 10:00:22;;;;;;;;;5.00;4.67;;;;;;;;4978650;28;46462;-79
2024/03/17 10:02:47;;;;;;;;;5.67;5.67;;;;;;;;4992078;28;46035;-79
2024/03/17 10:05:23;;;;;;;;;5.67;4.00;;;;;;;;4982777;28;45576;-80
2024/03/17 10:07:49;;;;;;;;;6.00;6.00;;;;;;;;4972033;28;45230;-79
2024/03/17 10:10:16;;;;;;;;;3.00;3.00;;;;;;;;4973155;28;46235;-81
2024/03/17 10:12:41;;;;;;;;;4.33;4.00;;;;;;;;4985594;28;45475;-81
2024/03/17 10:15:10;;;;;;;;;4.33;4.33;;;;;;;;4980465;28;45462;-82
2024/03/17 10:17:36;;;;;;;;;4.67;4.67;;;;;;;;4977453;28;45348;-80
2024/03/17 10:20:11;;;;;;;;;3.00;3.00;;;;;;;;5000800;28;46138;-78
2024/03/17 10:22:36;;;;;;;;;5.00;4.00;;;;;;;;5021342;28;46151;-80
2024/03/17 10:25:01;;;;;;;;;4.00;4.00;;;;;;;;4996789;28;45358;-78
2024/03/17 10:27:26;;;;;;;;;4.25;4.00;;;;;;;;4999273;28;45248;-79
2024/03/17 10:29:52;;;;;;;;;5.00;3.50;;;;;;;;4991970;28;47353;-78
2024/03/17 10:32:17;;;;;;;;;3.50;3.00;;;;;;;;4998625;28;45566;-78
2024/03/17 10:34:43;;;;;;;;;4.75;3.75;;;;;;;;5014167;28;45412;-77
2024/03/17 10:37:12;;;;;;;;;6.00;4.50;;;;;;;;4998758;28;45494;-77
2024/03/17 10:39:38;;;;;;;;;2.00;2.00;;;;;;;;4983709;28;46906;-78
2024/03/17 10:42:04;;;;;;;;;4.00;4.00;;;;;;;;4999044;28;46291;-78
2024/03/17 10:44:30;;;;;;;;;3.33;2.33;;;;;;;;4999265;28;45376;-78
2024/03/17 10:46:59;;;;;;;;;3.00;2.67;;;;;;;;4999044;28;45278;-77
2024/03/17 10:49:31;;;;;;;;;2.00;2.00;;;;;;;;4998436;28;45499;-78
2024/03/17 10:51:59;;;;;;;;;3.00;3.00;;;;;;;;4999421;28;46873;-77
2024/03/17 10:54:28;;;;;;;;;5.00;4.00;;;;;;;;4999392;28;45364;-79
2024/03/17 10:56:53;;;;;;;;;5.00;5.00;;;;;;;;5002841;28;45388;-77
2024/03/17 10:59:22;;;;;;;;;8.00;5.33;;;;;;;;5020748;28;45234;-78
2024/03/17 11:01:48;;;;;;;;;5.00;3.67;;;;;;;;4999528;28;46199;-81
2024/03/17 11:04:13;;;;;;;;;4.00;4.00;;;;;;;;5000169;28;45223;-79
2024/03/17 11:06:39;;;;;;;;;5.00;4.00;;;;;;;;4999744;28;45500;-78
2024/03/17 11:09:04;;;;;;;;;4.00;4.00;;;;;;;;4999522;28;45592;-78
2024/03/17 11:11:36;;;;;;;;;2.00;2.00;;;;;;;;4999966;28;46107;-79
2024/03/17 11:14:20;;;;;;;;;5.00;3.33;;;;;;;;5001258;28;45328;-80
2024/03/17 11:16:45;;;;;;;;;5.00;4.00;;;;;;;;4999221;28;45260;-79
2024/03/17 11:19:15;;;;;;;;;4.33;4.00;;;;;;;;5000261;28;45337;-78
2024/03/17 11:21:40;;;;;;;;;4.00;4.00;;;;;;;;4981828;28;47366;-77
2024/03/17 11:24:05;;;;;;;;;4.00;3.00;;;;;;;;4981750;28;45350;-79
2024/03/17 11:26:32;;;;;;;;;2.00;2.00;;;;;;;;4999450;28;45313;-78
2024/03/17 11:28:58;;;;;;;;;1.33;1.33;;;;;;;;4981725;28;46088;-78
2024/03/17 11:31:37;;;;;;;;;7.00;3.00;;;;;;;;4998997;28;45403;-79
2024/03/17 11:34:07;;;;;;;;;4.00;4.00;;;;;;;;4999372;28;45297;-79
2024/03/17 11:36:33;;;;;;;;;5.33;4.67;;;;;;;;4981626;28;45404;-78
2024/03/17 11:39:21;;;;;;;;;7.00;6.00;;;;;;;;4999302;28;45380;-77
2024/03/17 11:41:47;;;;;;;;;7.67;7.00;;;;;;;;4999085;28;45320;-77
2024/03/17 11:44:25;;;;;;;;;6.00;6.00;;;;;;;;4981537;28;45637;-77
2024/03/17 11:46:58;;;;;;;;;7.00;6.00;;;;;;;;4999128;28;45334;-78
2024/03/17 11:49:25;;;;;;;;;7.67;6.67;;;;;;;;4999297;28;45515;-77
2024/03/17 11:51:52;;;;;;;;;4.67;3.33;;;;;;;;4998832;28;46594;-77
2024/03/17 11:54:21;;;;;;;;;5.25;3.25;;;;;;;;4978824;28;45727;-78
2024/03/17 11:56:50;;;;;;;;;5.33;4.00;;;;;;;;4995534;28;45286;-77
2024/03/17 11:59:19;;;;;;;;;4.50;4.50;;;;;;;;4991421;28;45370;-77
2024/03/17 12:01:48;;;;;;;;;2.33;2.33;;;;;;;;4978353;28;48653;-78
2024/03/17 12:04:14;;;;;;;;;6.33;5.00;;;;;;;;5001654;28;45601;-78
2024/03/17 12:06:43;;;;;;;;;6.33;5.33;;;;;;;;5002270;28;45384;-77
2024/03/17 12:09:20;;;;;;;;;6.00;6.00;;;;;;;;5002201;28;45313;-77
2024/03/17 12:11:45;;;;;;;;;5.67;5.33;;;;;;;;5002007;28;46503;-78
2024/03/17 12:14:19;;;;;;;;;4.00;4.00;;;;;;;;4999334;28;45987;-77
2024/03/17 12:16:55;;;;;;;;;2.75;2.75;;;;;;;;4983775;28;45317;-78
2024/03/17 12:19:21;;;;;;;;;4.67;4.67;;;;;;;;5000530;28;45677;-77
2024/03/17 12:21:49;;;;;;;;;5.67;5.67;;;;;;;;4969678;28;47230;-77
2024/03/17 12:24:15;;;;;;;;;4.33;4.33;;;;;;;;4981419;28;45743;-80
2024/03/17 12:26:40;;;;;;;;;4.67;4.00;;;;;;;;4999618;28;45510;-77
2024/03/17 12:29:21;;;;;;;;;6.67;6.67;;;;;;;;5000991;28;45337;-78
2024/03/17 12:31:46;;;;;;;;;4.00;4.00;;;;;;;;4999511;28;46144;-78
2024/03/17 12:34:11;;;;;;;;;2.25;2.25;;;;;;;;5000445;28;45258;-77
2024/03/17 12:36:37;;;;;;;;;3.00;3.00;;;;;;;;5001233;28;45306;-78
2024/03/17 12:39:18;;;;;;;;;2.00;2.00;;;;;;;;5001407;28;45436;-78
2024/03/17 12:41:43;;;;;;;;;3.33;3.33;;;;;;;;5001136;28;45902;-77
2024/03/17 12:44:19;;;;;;;;;4.33;4.33;;;;;;;;5001425;28;45317;-78
2024/03/17 12:46:45;;;;;;;;;4.00;4.00;;;;;;;;4996986;28;45731;-78
2024/03/17 12:49:10;;;;;;;;;4.00;3.00;;;;;;;;4994974;28;45344;-78
2024/03/17 12:51:40;;;;;;;;;5.00;4.33;;;;;;;;5003695;28;46168;-79
2024/03/17 12:54:19;;;;;;;;;4.67;4.67;;;;;;;;5021446;28;45381;-77
2024/03/17 13:02:27;;;;;;;;;4.33;4.33;;;;;;;;4988160;28;45681;-78
2024/03/17 13:05:25;;;;;;;;;2.00;2.00;;;;;;;;4979999;28;45410;-78
2024/03/17 13:07:51;;;;;;;;;5.33;5.00;;;;;;;;4954268;28;45543;-77
2024/03/17 13:10:17;;;;;;;;;6.33;4.33;;;;;;;;4998021;28;45419;-78
2024/03/17 13:12:43;;;;;;;;;6.33;6.33;;;;;;;;4999723;28;45495;-78
2024/03/17 13:15:09;;;;;;;;;3.67;3.67;;;;;;;;4991212;28;45443;-77
2024/03/17 13:17:34;;;;;;;;;5.00;4.00;;;;;;;;4984477;28;45325;-77
2024/03/17 13:20:00;;;;;;;;;4.75;3.75;;;;;;;;4999255;28;45411;-78
2024/03/17 13:22:26;;;;;;;;;6.33;6.33;;;;;;;;4982687;28;46747;-78
2024/03/17 13:24:51;;;;;;;;;6.67;6.33;;;;;;;;4983091;28;45429;-78
2024/03/17 13:27:16;;;;;;;;;5.00;5.00;;;;;;;;4979640;28;45473;-79
2024/03/17 13:29:44;;;;;;;;;5.00;5.00;;;;;;;;4973470;28;47490;-77
2024/03/17 13:32:09;;;;;;;;;8.00;8.00;;;;;;;;4998622;28;45696;-77
2024/03/17 13:34:34;;;;;;;;;8.00;6.33;;;;;;;;4980416;28;45823;-77
2024/03/17 13:37:01;;;;;;;;;8.67;7.00;;;;;;;;4997155;28;45355;-77
2024/03/17 13:39:31;;;;;;;;;6.00;6.00;;;;;;;;5000038;28;46114;-76
2024/03/17 13:42:02;;;;;;;;;10.00;9.00;;;;;;;;4999356;28;46451;-78
2024/03/17 13:44:27;;;;;;;;;8.00;7.00;;;;;;;;5000438;28;45588;-77
2024/03/17 13:46:52;;;;;;;;;6.33;6.33;;;;;;;;4994744;28;45501;-77
2024/03/17 13:49:17;;;;;;;;;7.67;5.33;;;;;;;;5000202;28;45415;-77
2024/03/17 13:51:42;;;;;;;;;6.00;5.00;;;;;;;;4999818;28;45378;-77
2024/03/17 13:54:07;;;;;;;;;6.67;6.67;;;;;;;;5000179;28;45439;-77
2024/03/17 13:56:33;;;;;;;;;9.33;6.33;;;;;;;;5005586;28;45593;-77
2024/03/17 13:58:58;;;;;;;;;6.00;6.00;;;;;;;;5002713;28;45497;-77
2024/03/17 14:01:23;;;;;;;;;6.67;6.67;;;;;;;;4999802;28;45532;-77
2024/03/17 14:03:48;;;;;;;;;10.67;9.33;;;;;;;;5000152;28;45361;-77
2024/03/17 14:06:13;;;;;;;;;12.67;11.67;;;;;;;;5000092;28;45545;-77
2024/03/17 14:08:38;;;;;;;;;11.00;11.00;;;;;;;;4999385;28;45404;-78
2024/03/17 14:11:04;;;;;;;;;7.67;7.00;;;;;;;;4997724;28;46467;-80
2024/03/17 14:13:29;;;;;;;;;8.00;7.00;;;;;;;;4994909;28;45360;-78
2024/03/17 14:15:57;;;;;;;;;8.67;6.33;;;;;;;;4998371;28;45353;-78
2024/03/17 14:18:22;;;;;;;;;8.00;6.00;;;;;;;;4982639;28;47162;-78
2024/03/17 14:20:48;;;;;;;;;7.00;7.00;;;;;;;;5000548;28;45432;-77
2024/03/17 14:23:13;;;;;;;;;5.00;5.00;;;;;;;;5001664;28;45286;-77
2024/03/17 14:25:38;;;;;;;;;6.67;6.67;;;;;;;;5000636;28;45292;-78
2024/03/17 14:28:04;;;;;;;;;5.33;5.00;;;;;;;;5000197;28;45321;-77
2024/03/17 14:30:29;;;;;;;;;6.00;6.00;;;;;;;;5000298;28;45469;-77
2024/03/17 14:32:55;;;;;;;;;7.67;6.67;;;;;;;;4999924;28;45492;-78
2024/03/17 14:35:22;;;;;;;;;8.00;8.00;;;;;;;;4983502;28;45422;-77
2024/03/17 14:37:47;;;;;;;;;9.67;8.00;;;;;;;;5000244;28;45336;-78
2024/03/17 14:40:20;;;;;;;;;7.00;7.00;;;;;;;;4981343;28;46290;-78
2024/03/17 14:42:46;;;;;;;;;6.67;6.67;;;;;;;;4983298;28;45455;-77
2024/03/17 14:45:11;;;;;;;;;8.00;5.00;;;;;;;;4986276;28;45380;-77